createdAt,value
2022-12-05T00:03:24.098Z,99882.09
2022-12-05T00:08:25.480Z,99890.31
2022-12-05T00:13:26.842Z,99883.69
2022-12-05T00:18:28.216Z,99881.03
2022-12-05T00:23:29.947Z,99890.00
2022-12-05T00:28:34.246Z,99897.34
2022-12-05T00:33:35.655Z,99902.56
2022-12-05T00:38:37.054Z,99899.59
2022-12-05T00:43:38.507Z,99901.72
2022-12-05T00:48:39.953Z,99901.22
2022-12-05T00:53:41.443Z,99910.03
2022-12-05T00:58:42.868Z,99901.84
2022-12-05T01:03:44.537Z,99900.31
2022-12-05T01:08:45.900Z,99903.38
2022-12-05T01:13:47.311Z,99907.19
2022-12-05T01:18:48.690Z,99903.38
2022-12-05T01:23:50.099Z,99906.13
2022-12-05T01:28:51.603Z,99908.38
2022-12-05T01:33:53.805Z,99899.59
2022-12-05T01:38:55.418Z,99896.84
2022-12-05T01:44:03.590Z,99909.41
2022-12-05T01:49:14.330Z,99907.78
2022-12-05T01:54:16.519Z,99915.97
2022-12-05T01:59:17.987Z,99915.16
2022-12-05T02:04:19.395Z,99912.16
2022-12-05T02:09:21.453Z,99907.44
2022-12-05T02:14:39.788Z,99905.53
2022-12-05T02:20:00.291Z,99911.16
2022-12-05T02:25:37.318Z,99915.63
2022-12-05T02:30:40.206Z,99915.97
2022-12-05T02:36:02.954Z,99921.75
2022-12-05T02:41:48.350Z,99923.44
2022-12-05T02:46:49.578Z,99914.22
2022-12-05T02:51:53.452Z,99911.50
2022-12-05T02:56:54.946Z,99898.66
2022-12-05T03:01:56.318Z,99904.22
2022-12-05T03:07:04.895Z,99887.00
2022-12-05T03:12:08.540Z,99900.41
2022-12-05T03:17:11.577Z,99904.56
2022-12-05T03:22:18.742Z,99899.59
2022-12-05T03:27:33.908Z,99899.25
2022-12-05T03:33:06.244Z,99899.81
2022-12-05T03:38:13.316Z,99909.00
2022-12-05T03:43:23.452Z,99918.59
2022-12-05T03:48:43.620Z,99918.94
2022-12-05T03:53:51.407Z,99914.22
2022-12-05T03:59:01.588Z,99920.75
2022-12-05T04:04:10.936Z,99919.56
2022-12-05T04:09:28.046Z,99915.88
2022-12-05T04:14:40.185Z,99923.63
2022-12-05T04:20:20.360Z,99917.19
2022-12-05T04:25:33.650Z,99930.69
2022-12-05T04:30:41.219Z,99926.16
2022-12-05T04:36:03.010Z,99927.03
2022-12-05T04:41:06.436Z,99929.50
2022-12-05T04:46:10.045Z,99927.97
2022-12-05T04:51:13.198Z,99929.88
2022-12-05T04:56:15.615Z,99938.31
2022-12-05T05:01:22.886Z,99948.41
2022-12-05T05:06:24.374Z,99953.03
2022-12-05T05:11:29.886Z,99951.63
2022-12-05T05:16:36.333Z,99958.28
2022-12-05T05:21:39.136Z,99959.06
2022-12-05T05:26:41.731Z,99949.56
2022-12-05T05:31:43.158Z,99957.75
2022-12-05T05:36:44.578Z,99956.34
2022-12-05T05:41:45.956Z,99962.41
2022-12-05T05:46:47.369Z,99965.72
2022-12-05T05:51:48.792Z,99973.66
2022-12-05T05:56:50.171Z,99972.38
2022-12-05T06:01:51.542Z,99975.09
2022-12-05T06:06:52.904Z,99975.09
2022-12-05T06:11:54.299Z,99989.56
2022-12-05T06:16:55.767Z,99977.09
2022-12-05T06:21:57.190Z,99987.44
2022-12-05T06:26:58.559Z,99996.47
2022-12-05T06:32:00.003Z,100005.47
2022-12-05T06:37:01.522Z,100017.22
2022-12-05T06:42:02.983Z,100029.25
2022-12-05T06:47:04.364Z,100039.09
2022-12-05T06:52:05.824Z,100042.91
2022-12-05T06:57:07.437Z,100048.38
2022-12-05T07:02:14.301Z,100055.13
2022-12-05T07:07:15.755Z,100045.88
2022-12-05T07:12:18.047Z,100050.72
2022-12-05T07:17:19.499Z,100053.66
2022-12-05T07:22:21.849Z,100056.47
2022-12-05T07:27:27.201Z,100048.72
2022-12-05T07:32:32.146Z,100055.63
2022-12-05T07:37:33.524Z,100057.38
2022-12-05T07:42:34.960Z,100063.16
2022-12-05T07:47:36.405Z,100063.78
2022-12-05T07:52:37.824Z,100064.56
2022-12-05T07:57:39.204Z,100073.88
2022-12-05T08:02:41.091Z,100076.94
2022-12-05T08:07:42.702Z,100094.75
2022-12-05T08:12:44.172Z,100081.66
2022-12-05T08:17:45.544Z,100084.53
2022-12-05T08:22:46.932Z,100091.41
2022-12-05T08:27:48.327Z,100086.16
2022-12-05T08:32:49.695Z,100099.91
2022-12-05T08:37:51.964Z,100107.78
2022-12-05T08:42:53.332Z,100094.78
2022-12-05T08:47:54.720Z,100090.16
2022-12-05T08:52:56.080Z,100089.66
2022-12-05T08:57:57.449Z,100100.00
2022-12-05T09:02:59.161Z,100110.38
2022-12-05T09:08:00.721Z,100111.19
2022-12-05T09:13:02.227Z,100123.56
2022-12-05T09:18:03.640Z,100130.44
2022-12-05T09:23:05.013Z,100141.47
2022-12-05T09:28:06.396Z,100149.44
2022-12-05T09:33:07.804Z,100157.31
2022-12-05T09:38:09.172Z,100147.13
2022-12-05T09:43:25.694Z,100147.19
2022-12-05T09:48:27.072Z,100139.22
2022-12-05T09:53:35.779Z,100139.56
2022-12-05T09:58:42.971Z,100153.00
2022-12-05T10:03:58.979Z,100151.59
2022-12-05T10:09:31.227Z,100152.91
2022-12-05T10:14:36.339Z,100155.63
2022-12-05T10:19:39.924Z,100151.34
2022-12-05T10:24:56.321Z,100155.16
2022-12-05T10:29:58.551Z,100152.66
2022-12-05T10:35:02.339Z,100145.38
2022-12-05T10:40:03.864Z,100149.44
2022-12-05T10:45:07.244Z,100139.66
2022-12-05T10:50:27.680Z,100134.53
2022-12-05T10:55:32.292Z,100133.88
2022-12-05T11:00:33.699Z,100147.28
2022-12-05T11:05:35.244Z,100141.22
2022-12-05T11:10:37.669Z,100128.81
2022-12-05T11:15:39.157Z,100129.97
2022-12-05T11:20:41.131Z,100139.50
2022-12-05T11:25:42.507Z,100140.00
2022-12-05T11:30:58.463Z,100127.16
2022-12-05T11:36:11.432Z,100127.63
2022-12-05T11:41:39.108Z,100134.88
2022-12-05T11:47:04.471Z,100137.34
2022-12-05T11:52:22.809Z,100131.28
2022-12-05T11:57:56.540Z,100139.50
2022-12-05T12:03:33.354Z,100131.78
2022-12-05T12:09:01.140Z,100135.22
2022-12-05T12:14:20.365Z,100123.09
2022-12-05T12:19:47.835Z,100118.72
2022-12-05T12:25:11.955Z,100117.03
2022-12-05T12:30:17.467Z,100109.06
2022-12-05T12:35:29.824Z,100103.84
2022-12-05T12:40:35.004Z,100100.06
2022-12-05T12:45:51.213Z,100096.47
2022-12-05T12:50:53.968Z,100091.84
2022-12-05T12:56:23.067Z,100095.28
2022-12-05T13:01:53.256Z,100099.56
2022-12-05T13:06:58.467Z,100107.66
2022-12-05T13:12:05.022Z,100106.66
2022-12-05T13:17:06.678Z,100111.31
2022-12-05T13:22:08.700Z,100115.38
2022-12-05T13:27:15.354Z,100107.91
2022-12-05T13:32:34.248Z,100120.28
2022-12-05T13:37:54.230Z,100128.97
2022-12-05T13:43:02.856Z,100125.97
2022-12-05T13:48:14.369Z,100133.13
2022-12-05T13:53:37.535Z,100137.75
2022-12-05T13:58:45.874Z,100145.78
2022-12-05T14:03:47.085Z,100144.88
2022-12-05T14:08:52.802Z,100144.88
2022-12-05T14:13:54.553Z,100139.03
2022-12-05T14:19:24.455Z,100132.06
2022-12-05T14:25:00.141Z,100133.97
2022-12-05T14:30:05.583Z,100137.41
2022-12-05T14:35:29.659Z,100134.19
2022-12-05T14:40:38.104Z,100134.13
2022-12-05T14:45:40.852Z,100137.31
2022-12-05T14:50:49.430Z,100141.88
2022-12-05T14:55:56.082Z,100140.66
2022-12-05T15:01:01.978Z,100142.59
2022-12-05T15:06:04.906Z,100139.59
2022-12-05T15:11:06.280Z,100143.16
2022-12-05T15:16:15.782Z,100149.34
2022-12-05T15:21:44.747Z,100152.06
2022-12-05T15:26:58.598Z,100153.16
2022-12-05T15:32:15.886Z,100145.09
2022-12-05T15:37:36.855Z,100148.66
2022-12-05T15:43:01.618Z,100152.91
2022-12-05T15:48:02.828Z,100152.81
2022-12-05T15:53:10.267Z,100159.03
2022-12-05T15:58:27.611Z,100157.94
2022-12-05T16:03:41.413Z,100169.22
2022-12-05T16:08:46.379Z,100168.63
2022-12-05T16:13:49.593Z,100175.91
2022-12-05T16:18:53.401Z,100180.88
2022-12-05T16:24:00.356Z,100185.25
2022-12-05T16:29:02.039Z,100174.59
2022-12-05T16:34:05.325Z,100179.22
2022-12-05T16:39:07.090Z,100183.38
2022-12-05T16:44:26.629Z,100183.94
2022-12-05T16:49:30.961Z,100186.84
2022-12-05T16:54:32.367Z,100188.63
2022-12-05T16:59:37.586Z,100191.09
2022-12-05T17:04:39.051Z,100187.31
2022-12-05T17:09:40.545Z,100193.84
2022-12-05T17:14:41.960Z,100187.19
2022-12-05T17:19:43.399Z,100181.72
2022-12-05T17:24:44.819Z,100193.75
2022-12-05T17:29:46.244Z,100191.38
2022-12-05T17:34:47.624Z,100188.38
2022-12-05T17:39:48.999Z,100189.69
2022-12-05T17:44:50.369Z,100190.75
2022-12-05T17:49:51.748Z,100190.06
2022-12-05T17:54:53.136Z,100196.13
2022-12-05T17:59:54.517Z,100195.84
2022-12-05T18:04:56.338Z,100209.88
2022-12-05T18:09:57.955Z,100202.88
2022-12-05T18:14:59.588Z,100207.03
2022-12-05T18:20:01.188Z,100206.47
2022-12-05T18:25:03.426Z,100207.88
2022-12-05T18:30:05.567Z,100207.88
2022-12-05T18:35:12.672Z,100209.53
2022-12-05T18:40:14.832Z,100208.34
2022-12-05T18:45:16.273Z,100221.19
2022-12-05T18:50:17.639Z,100224.75
2022-12-05T18:55:27.010Z,100229.38
2022-12-05T19:00:39.696Z,100237.34
2022-12-05T19:05:43.154Z,100239.59
2022-12-05T19:10:44.535Z,100233.91
2022-12-05T19:15:48.682Z,100238.53
2022-12-05T19:20:51.088Z,100236.84
2022-12-05T19:25:59.149Z,100233.06
2022-12-05T19:31:04.667Z,100225.13
2022-12-05T19:36:11.444Z,100239.25
2022-12-05T19:41:14.476Z,100230.22
2022-12-05T19:46:18.833Z,100226.28
2022-12-05T19:51:20.344Z,100223.19
2022-12-05T19:56:23.060Z,100226.75
2022-12-05T20:01:26.174Z,100224.97
2022-12-05T20:06:51.628Z,100223.34
2022-12-05T20:11:55.531Z,100226.66
2022-12-05T20:16:57.186Z,100228.06
2022-12-05T20:21:58.652Z,100233.31
2022-12-05T20:27:01.506Z,100230.59
2022-12-05T20:32:03.267Z,100236.03
2022-12-05T20:37:04.623Z,100228.91
2022-12-05T20:42:06.082Z,100216.56
2022-12-05T20:47:07.484Z,100220.97
2022-12-05T20:52:08.852Z,100211.94
2022-12-05T20:57:10.232Z,100210.13
2022-12-05T21:02:11.662Z,100204.56
2022-12-05T21:07:13.045Z,100201.22
2022-12-05T21:12:14.416Z,100201.69
2022-12-05T21:17:15.779Z,100211.94
2022-12-05T21:22:17.168Z,100207.28
2022-12-05T21:27:19.777Z,100209.78
2022-12-05T21:32:21.176Z,100205.63
2022-12-05T21:37:22.552Z,100203.38
2022-12-05T21:42:23.925Z,100202.31
2022-12-05T21:47:25.344Z,100209.53
2022-12-05T21:52:26.710Z,100200.06
2022-12-05T21:57:29.212Z,100186.50
2022-12-05T22:02:30.635Z,100191.13
2022-12-05T22:07:32.090Z,100193.03
2022-12-05T22:12:33.908Z,100195.16
2022-12-05T22:17:35.543Z,100191.38
2022-12-05T22:22:36.935Z,100198.75
2022-12-05T22:27:38.296Z,100198.59
2022-12-05T22:32:40.052Z,100190.75
2022-12-05T22:37:41.407Z,100188.88
2022-12-05T22:42:42.851Z,100181.13
2022-12-05T22:47:44.219Z,100168.41
2022-12-05T22:52:45.589Z,100167.00
2022-12-05T22:57:46.992Z,100168.06
2022-12-05T23:02:48.415Z,100168.91
2022-12-05T23:07:49.853Z,100157.75
2022-12-05T23:12:51.255Z,100150.25
2022-12-05T23:17:52.640Z,100144.47
2022-12-05T23:22:53.999Z,100143.38
2022-12-05T23:27:55.380Z,100128.66
2022-12-05T23:32:56.789Z,100123.53
2022-12-05T23:37:58.159Z,100108.56
2022-12-05T23:42:59.543Z,100112.59
2022-12-05T23:48:04.525Z,100117.72
2022-12-05T23:53:06.428Z,100109.03
2022-12-05T23:58:07.795Z,100114.72
